sensor_id;sensor_type;location;lat;lon;timestamp;P1;P2;P0
65556;PMS3003;52200;53.490;14.376;2023-02-28T00:00:28;87.00;57.80;34.00
65556;PMS3003;52200;53.490;14.376;2023-02-28T00:02:53;84.75;62.25;36.75
65556;PMS3003;52200;53.490;14.376;2023-02-28T00:05:20;88.00;62.00;35.50
65556;PMS3003;52200;53.490;14.376;2023-02-28T00:07:47;82.50;62.75;39.00
65556;PMS3003;52200;53.490;14.376;2023-02-28T00:10:15;88.25;63.50;39.00
65556;PMS3003;52200;53.490;14.376;2023-02-28T00:12:46;84.50;63.75;37.25
65556;PMS3003;52200;53.490;14.376;2023-02-28T00:15:13;93.50;68.50;40.50
65556;PMS3003;52200;53.490;14.376;2023-02-28T00:17:38;89.00;66.33;40.00
65556;PMS3003;52200;53.490;14.376;2023-02-28T00:20:04;88.33;65.67;37.33
65556;PMS3003;52200;53.490;14.376;2023-02-28T00:22:41;99.00;67.00;38.50
65556;PMS3003;52200;53.490;14.376;2023-02-28T00:25:12;88.75;65.75;39.75
65556;PMS3003;52200;53.490;14.376;2023-02-28T00:27:39;89.25;63.25;37.75
65556;PMS3003;52200;53.490;14.376;2023-02-28T00:30:06;85.00;63.50;37.75
65556;PMS3003;52200;53.490;14.376;2023-02-28T00:32:33;83.50;63.25;35.75
65556;PMS3003;52200;53.490;14.376;2023-02-28T00:34:59;88.75;63.50;37.25
65556;PMS3003;52200;53.490;14.376;2023-02-28T00:37:25;87.33;66.00;37.67
65556;PMS3003;52200;53.490;14.376;2023-02-28T00:39:50;96.33;65.33;39.00
65556;PMS3003;52200;53.490;14.376;2023-02-28T00:42:16;92.67;68.67;40.67
65556;PMS3003;52200;53.490;14.376;2023-02-28T00:44:41;91.67;67.33;41.33
65556;PMS3003;52200;53.490;14.376;2023-02-28T00:47:07;87.33;64.33;37.67
65556;PMS3003;52200;53.490;14.376;2023-02-28T00:49:32;93.33;67.33;41.00
65556;PMS3003;52200;53.490;14.376;2023-02-28T00:51:57;92.00;66.00;38.67
65556;PMS3003;52200;53.490;14.376;2023-02-28T00:54:23;91.67;64.00;38.67
65556;PMS3003;52200;53.490;14.376;2023-02-28T00:56:49;86.75;65.00;39.00
65556;PMS3003;52200;53.490;14.376;2023-02-28T00:59:15;91.50;67.75;39.25
65556;PMS3003;52200;53.490;14.376;2023-02-28T01:01:42;93.25;65.00;38.75
65556;PMS3003;52200;53.490;14.376;2023-02-28T01:04:08;89.25;66.50;38.25
65556;PMS3003;52200;53.490;14.376;2023-02-28T01:06:34;93.33;69.33;39.00
65556;PMS3003;52200;53.490;14.376;2023-02-28T01:09:01;88.50;68.25;41.25
65556;PMS3003;52200;53.490;14.376;2023-02-28T01:11:27;96.00;68.50;40.75
65556;PMS3003;52200;53.490;14.376;2023-02-28T01:13:53;101.33;71.00;44.00
65556;PMS3003;52200;53.490;14.376;2023-02-28T01:16:18;95.00;69.00;38.67
65556;PMS3003;52200;53.490;14.376;2023-02-28T01:18:43;95.00;67.33;41.00
65556;PMS3003;52200;53.490;14.376;2023-02-28T01:21:13;92.67;65.33;39.00
65556;PMS3003;52200;53.490;14.376;2023-02-28T01:23:40;96.00;69.50;42.75
65556;PMS3003;52200;53.490;14.376;2023-02-28T01:26:06;100.00;69.00;40.33
65556;PMS3003;52200;53.490;14.376;2023-02-28T01:28:33;97.25;68.75;40.75
65556;PMS3003;52200;53.490;14.376;2023-02-28T01:30:59;93.67;70.33;41.00
65556;PMS3003;52200;53.490;14.376;2023-02-28T01:33:24;96.00;66.67;39.33
65556;PMS3003;52200;53.490;14.376;2023-02-28T01:35:57;87.25;65.00;38.75
65556;PMS3003;52200;53.490;14.376;2023-02-28T01:38:23;83.25;62.50;37.75
65556;PMS3003;52200;53.490;14.376;2023-02-28T01:40:49;79.33;60.33;34.67
65556;PMS3003;52200;53.490;14.376;2023-02-28T01:43:19;91.25;64.50;37.75
65556;PMS3003;52200;53.490;14.376;2023-02-28T01:45:49;88.00;62.25;38.00
65556;PMS3003;52200;53.490;14.376;2023-02-28T01:48:15;86.25;60.50;34.00
65556;PMS3003;52200;53.490;14.376;2023-02-28T01:50:42;91.50;63.75;37.50
65556;PMS3003;52200;53.490;14.376;2023-02-28T01:53:11;91.75;67.25;38.75
65556;PMS3003;52200;53.490;14.376;2023-02-28T01:55:41;92.50;61.50;38.00
65556;PMS3003;52200;53.490;14.376;2023-02-28T01:58:12;90.50;65.25;37.75
65556;PMS3003;52200;53.490;14.376;2023-02-28T02:00:38;95.75;62.25;36.75
65556;PMS3003;52200;53.490;14.376;2023-02-28T02:03:06;85.50;58.50;36.75
65556;PMS3003;52200;53.490;14.376;2023-02-28T02:05:36;84.25;59.00;37.00
65556;PMS3003;52200;53.490;14.376;2023-02-28T02:08:04;85.75;60.25;36.00
65556;PMS3003;52200;53.490;14.376;2023-02-28T02:16:09;92.00;64.25;38.00
65556;PMS3003;52200;53.490;14.376;2023-02-28T02:21:28;85.40;61.80;36.20
65556;PMS3003;52200;53.490;14.376;2023-02-28T02:24:03;82.50;60.00;37.25
65556;PMS3003;52200;53.490;14.376;2023-02-28T02:29:59;87.00;59.25;37.75
65556;PMS3003;52200;53.490;14.376;2023-02-28T02:46:38;88.50;67.50;37.25
65556;PMS3003;52200;53.490;14.376;2023-02-28T02:49:09;81.20;62.20;34.80
65556;PMS3003;52200;53.490;14.376;2023-02-28T02:51:47;79.40;57.80;36.40
65556;PMS3003;52200;53.490;14.376;2023-02-28T02:54:16;85.75;66.50;39.00
65556;PMS3003;52200;53.490;14.376;2023-02-28T02:56:46;82.50;58.75;36.75
65556;PMS3003;52200;53.490;14.376;2023-02-28T02:59:16;81.40;56.60;33.40
65556;PMS3003;52200;53.490;14.376;2023-02-28T03:01:46;85.20;62.20;38.00
65556;PMS3003;52200;53.490;14.376;2023-02-28T03:04:18;79.75;59.50;35.00
65556;PMS3003;52200;53.490;14.376;2023-02-28T03:06:46;85.60;58.20;34.80
65556;PMS3003;52200;53.490;14.376;2023-02-28T03:09:11;80.00;58.67;35.33
65556;PMS3003;52200;53.490;14.376;2023-02-28T03:11:37;74.50;58.00;35.25
65556;PMS3003;52200;53.490;14.376;2023-02-28T03:14:25;87.20;61.00;34.80
65556;PMS3003;52200;53.490;14.376;2023-02-28T03:17:41;76.80;57.60;35.00
65556;PMS3003;52200;53.490;14.376;2023-02-28T03:20:24;68.40;49.60;28.60
65556;PMS3003;52200;53.490;14.376;2023-02-28T03:25:56;71.40;53.40;28.20
65556;PMS3003;52200;53.490;14.376;2023-02-28T03:28:31;67.60;51.00;30.60
65556;PMS3003;52200;53.490;14.376;2023-02-28T03:31:03;65.20;51.80;32.40
65556;PMS3003;52200;53.490;14.376;2023-02-28T03:33:59;72.20;52.00;28.00
65556;PMS3003;52200;53.490;14.376;2023-02-28T03:36:45;73.60;52.20;26.80
65556;PMS3003;52200;53.490;14.376;2023-02-28T03:39:18;63.00;44.60;26.00
65556;PMS3003;52200;53.490;14.376;2023-02-28T03:44:40;65.20;51.60;30.20
65556;PMS3003;52200;53.490;14.376;2023-02-28T03:47:17;62.40;50.20;28.60
65556;PMS3003;52200;53.490;14.376;2023-02-28T03:50:00;69.40;53.60;32.00
65556;PMS3003;52200;53.490;14.376;2023-02-28T03:52:30;73.20;53.20;32.20
65556;PMS3003;52200;53.490;14.376;2023-02-28T03:54:59;78.80;56.60;33.40
65556;PMS3003;52200;53.490;14.376;2023-02-28T03:57:41;76.20;57.60;32.60
65556;PMS3003;52200;53.490;14.376;2023-02-28T04:00:25;82.20;56.60;34.40
65556;PMS3003;52200;53.490;14.376;2023-02-28T04:02:53;79.80;58.40;33.80
65556;PMS3003;52200;53.490;14.376;2023-02-28T04:05:19;81.40;55.20;31.20
65556;PMS3003;52200;53.490;14.376;2023-02-28T04:07:46;81.40;56.00;28.80
65556;PMS3003;52200;53.490;14.376;2023-02-28T04:10:12;90.75;59.00;34.50
65556;PMS3003;52200;53.490;14.376;2023-02-28T04:12:38;86.40;59.60;34.60
65556;PMS3003;52200;53.490;14.376;2023-02-28T04:15:03;85.25;61.50;36.00
65556;PMS3003;52200;53.490;14.376;2023-02-28T04:17:29;84.60;58.00;35.80
65556;PMS3003;52200;53.490;14.376;2023-02-28T04:19:55;82.50;59.00;35.25
65556;PMS3003;52200;53.490;14.376;2023-02-28T04:22:22;86.00;61.80;35.80
65556;PMS3003;52200;53.490;14.376;2023-02-28T04:24:50;83.60;56.80;35.20
65556;PMS3003;52200;53.490;14.376;2023-02-28T04:27:16;80.00;58.50;34.75
65556;PMS3003;52200;53.490;14.376;2023-02-28T04:29:41;86.50;61.25;35.00
65556;PMS3003;52200;53.490;14.376;2023-02-28T04:32:09;90.60;61.00;35.60
65556;PMS3003;52200;53.490;14.376;2023-02-28T04:34:35;84.00;63.40;35.00
65556;PMS3003;52200;53.490;14.376;2023-02-28T04:37:00;78.50;56.00;34.50
65556;PMS3003;52200;53.490;14.376;2023-02-28T04:39:28;81.20;58.40;34.60
65556;PMS3003;52200;53.490;14.376;2023-02-28T04:41:54;81.60;62.20;34.80
65556;PMS3003;52200;53.490;14.376;2023-02-28T04:44:20;77.00;59.00;35.00
65556;PMS3003;52200;53.490;14.376;2023-02-28T04:46:47;87.80;62.20;35.60
65556;PMS3003;52200;53.490;14.376;2023-02-28T04:49:13;86.00;60.00;35.00
65556;PMS3003;52200;53.490;14.376;2023-02-28T04:51:38;74.50;55.75;33.75
65556;PMS3003;52200;53.490;14.376;2023-02-28T04:54:04;84.00;57.50;33.75
65556;PMS3003;52200;53.490;14.376;2023-02-28T04:56:30;81.75;58.75;35.00
65556;PMS3003;52200;53.490;14.376;2023-02-28T04:58:55;82.50;57.00;31.75
65556;PMS3003;52200;53.490;14.376;2023-02-28T05:01:22;80.50;57.50;35.25
65556;PMS3003;52200;53.490;14.376;2023-02-28T05:03:53;79.80;57.40;32.60
65556;PMS3003;52200;53.490;14.376;2023-02-28T05:06:22;81.80;55.60;30.20
65556;PMS3003;52200;53.490;14.376;2023-02-28T05:08:49;71.00;56.40;30.60
65556;PMS3003;52200;53.490;14.376;2023-02-28T05:11:25;80.00;54.25;31.25
65556;PMS3003;52200;53.490;14.376;2023-02-28T05:13:54;75.20;57.20;30.60
65556;PMS3003;52200;53.490;14.376;2023-02-28T05:16:20;84.60;55.20;31.40
65556;PMS3003;52200;53.490;14.376;2023-02-28T05:18:46;84.40;58.00;31.40
65556;PMS3003;52200;53.490;14.376;2023-02-28T05:21:17;78.50;57.50;33.25
65556;PMS3003;52200;53.490;14.376;2023-02-28T05:23:55;67.60;47.60;28.80
65556;PMS3003;52200;53.490;14.376;2023-02-28T05:26:23;81.20;60.00;32.00
65556;PMS3003;52200;53.490;14.376;2023-02-28T05:28:49;71.60;55.80;28.00
65556;PMS3003;52200;53.490;14.376;2023-02-28T05:31:14;76.25;54.25;33.00
65556;PMS3003;52200;53.490;14.376;2023-02-28T05:33:40;69.00;52.25;29.75
65556;PMS3003;52200;53.490;14.376;2023-02-28T05:36:05;73.00;51.25;32.00
65556;PMS3003;52200;53.490;14.376;2023-02-28T05:38:31;65.00;48.40;28.60
65556;PMS3003;52200;53.490;14.376;2023-02-28T05:40:57;75.25;54.75;28.25
65556;PMS3003;52200;53.490;14.376;2023-02-28T05:43:22;59.50;47.00;27.25
65556;PMS3003;52200;53.490;14.376;2023-02-28T05:45:48;66.80;46.60;27.00
65556;PMS3003;52200;53.490;14.376;2023-02-28T05:48:14;83.75;56.75;28.75
65556;PMS3003;52200;53.490;14.376;2023-02-28T05:50:39;68.00;51.50;28.25
65556;PMS3003;52200;53.490;14.376;2023-02-28T05:53:04;69.50;53.75;28.00
65556;PMS3003;52200;53.490;14.376;2023-02-28T05:55:30;68.25;54.75;30.50
65556;PMS3003;52200;53.490;14.376;2023-02-28T05:57:55;74.25;54.00;28.00
65556;PMS3003;52200;53.490;14.376;2023-02-28T06:00:21;66.00;51.25;29.75
65556;PMS3003;52200;53.490;14.376;2023-02-28T06:02:46;68.00;54.25;30.25
65556;PMS3003;52200;53.490;14.376;2023-02-28T06:05:16;80.00;57.00;32.50
65556;PMS3003;52200;53.490;14.376;2023-02-28T06:07:42;66.80;53.80;32.00
65556;PMS3003;52200;53.490;14.376;2023-02-28T06:10:09;81.40;58.00;32.60
65556;PMS3003;52200;53.490;14.376;2023-02-28T06:12:36;80.40;58.40;32.40
65556;PMS3003;52200;53.490;14.376;2023-02-28T06:15:02;72.00;56.40;30.20
65556;PMS3003;52200;53.490;14.376;2023-02-28T06:17:28;83.50;59.75;30.00
65556;PMS3003;52200;53.490;14.376;2023-02-28T06:19:53;83.00;58.25;34.50
65556;PMS3003;52200;53.490;14.376;2023-02-28T06:22:18;84.25;56.50;33.00
65556;PMS3003;52200;53.490;14.376;2023-02-28T06:24:44;81.00;58.25;29.00
65556;PMS3003;52200;53.490;14.376;2023-02-28T06:27:09;71.00;53.00;29.75
65556;PMS3003;52200;53.490;14.376;2023-02-28T06:29:34;81.75;56.25;32.00
65556;PMS3003;52200;53.490;14.376;2023-02-28T06:32:00;69.20;53.40;31.60
65556;PMS3003;52200;53.490;14.376;2023-02-28T06:34:26;63.75;51.50;30.00
65556;PMS3003;52200;53.490;14.376;2023-02-28T06:36:51;81.25;56.75;33.00
65556;PMS3003;52200;53.490;14.376;2023-02-28T06:39:17;70.75;53.00;31.75
65556;PMS3003;52200;53.490;14.376;2023-02-28T06:41:42;88.00;58.25;32.75
65556;PMS3003;52200;53.490;14.376;2023-02-28T06:44:14;88.00;59.40;34.60
65556;PMS3003;52200;53.490;14.376;2023-02-28T06:46:41;95.75;66.00;38.50
65556;PMS3003;52200;53.490;14.376;2023-02-28T06:49:08;97.50;73.75;41.50
65556;PMS3003;52200;53.490;14.376;2023-02-28T06:51:34;97.75;69.75;40.50
65556;PMS3003;52200;53.490;14.376;2023-02-28T06:54:01;102.50;73.75;43.50
65556;PMS3003;52200;53.490;14.376;2023-02-28T06:56:27;112.25;80.50;48.50
65556;PMS3003;52200;53.490;14.376;2023-02-28T06:58:52;125.67;84.67;49.33
65556;PMS3003;52200;53.490;14.376;2023-02-28T07:01:18;137.25;97.75;56.75
65556;PMS3003;52200;53.490;14.376;2023-02-28T07:03:44;126.00;89.50;53.50
65556;PMS3003;52200;53.490;14.376;2023-02-28T07:06:10;124.75;90.00;54.00
65556;PMS3003;52200;53.490;14.376;2023-02-28T07:08:36;126.67;88.67;54.33
65556;PMS3003;52200;53.490;14.376;2023-02-28T07:11:01;153.00;106.00;58.75
65556;PMS3003;52200;53.490;14.376;2023-02-28T07:13:27;131.80;95.20;56.60
65556;PMS3003;52200;53.490;14.376;2023-02-28T07:15:54;136.00;89.00;52.67
65556;PMS3003;52200;53.490;14.376;2023-02-28T07:18:27;128.50;86.75;50.75
65556;PMS3003;52200;53.490;14.376;2023-02-28T07:20:53;121.33;86.00;51.67
65556;PMS3003;52200;53.490;14.376;2023-02-28T07:23:19;121.50;83.75;51.00
65556;PMS3003;52200;53.490;14.376;2023-02-28T07:25:45;120.50;85.00;50.25
65556;PMS3003;52200;53.490;14.376;2023-02-28T07:28:10;110.67;81.00;49.00
65556;PMS3003;52200;53.490;14.376;2023-02-28T07:30:37;114.25;78.25;46.75
65556;PMS3003;52200;53.490;14.376;2023-02-28T07:33:02;104.33;72.67;43.67
65556;PMS3003;52200;53.490;14.376;2023-02-28T07:35:28;102.25;72.50;44.25
65556;PMS3003;52200;53.490;14.376;2023-02-28T07:37:54;102.00;70.00;43.00
65556;PMS3003;52200;53.490;14.376;2023-02-28T07:40:19;96.00;69.67;43.67
65556;PMS3003;52200;53.490;14.376;2023-02-28T07:42:45;101.33;73.67;43.33
65556;PMS3003;52200;53.490;14.376;2023-02-28T07:45:10;102.00;75.00;46.00
65556;PMS3003;52200;53.490;14.376;2023-02-28T07:47:40;108.75;81.25;48.00
65556;PMS3003;52200;53.490;14.376;2023-02-28T07:50:07;109.00;77.50;47.50
65556;PMS3003;52200;53.490;14.376;2023-02-28T07:52:36;117.20;89.20;53.40
65556;PMS3003;52200;53.490;14.376;2023-02-28T07:55:01;131.80;91.60;54.00
65556;PMS3003;52200;53.490;14.376;2023-02-28T07:57:27;128.75;98.75;55.75
65556;PMS3003;52200;53.490;14.376;2023-02-28T07:59:52;126.50;97.75;56.25
65556;PMS3003;52200;53.490;14.376;2023-02-28T08:02:18;122.25;93.50;57.75
65556;PMS3003;52200;53.490;14.376;2023-02-28T08:04:44;121.75;94.75;55.00
65556;PMS3003;52200;53.490;14.376;2023-02-28T08:07:10;131.40;102.40;59.40
65556;PMS3003;52200;53.490;14.376;2023-02-28T08:09:41;120.80;95.60;57.20
65556;PMS3003;52200;53.490;14.376;2023-02-28T08:12:07;112.40;84.00;51.60
65556;PMS3003;52200;53.490;14.376;2023-02-28T08:14:33;109.25;80.00;49.50
65556;PMS3003;52200;53.490;14.376;2023-02-28T08:16:59;109.67;82.33;49.33
65556;PMS3003;52200;53.490;14.376;2023-02-28T08:19:24;101.67;78.00;47.33
65556;PMS3003;52200;53.490;14.376;2023-02-28T08:21:49;101.67;73.00;44.00
65556;PMS3003;52200;53.490;14.376;2023-02-28T08:24:15;99.33;74.67;45.67
65556;PMS3003;52200;53.490;14.376;2023-02-28T08:26:40;94.33;71.00;44.33
65556;PMS3003;52200;53.490;14.376;2023-02-28T08:29:05;98.00;75.00;45.33
65556;PMS3003;52200;53.490;14.376;2023-02-28T08:31:31;95.33;69.33;43.67
65556;PMS3003;52200;53.490;14.376;2023-02-28T08:33:56;91.67;66.33;40.67
65556;PMS3003;52200;53.490;14.376;2023-02-28T08:36:24;88.25;67.00;39.50
65556;PMS3003;52200;53.490;14.376;2023-02-28T08:38:50;82.50;60.25;36.75
65556;PMS3003;52200;53.490;14.376;2023-02-28T08:41:15;84.00;61.00;35.00
65556;PMS3003;52200;53.490;14.376;2023-02-28T08:43:40;78.33;57.67;35.00
65556;PMS3003;52200;53.490;14.376;2023-02-28T08:46:06;72.50;55.50;31.75
65556;PMS3003;52200;53.490;14.376;2023-02-28T08:48:33;79.25;60.75;36.00
65556;PMS3003;52200;53.490;14.376;2023-02-28T08:51:00;72.80;55.20;32.60
65556;PMS3003;52200;53.490;14.376;2023-02-28T08:53:27;72.40;50.20;32.80
65556;PMS3003;52200;53.490;14.376;2023-02-28T08:56:00;67.50;50.25;30.25
65556;PMS3003;52200;53.490;14.376;2023-02-28T08:58:28;55.80;43.60;25.20
65556;PMS3003;52200;53.490;14.376;2023-02-28T09:00:54;63.25;47.50;24.00
65556;PMS3003;52200;53.490;14.376;2023-02-28T09:03:20;54.80;41.80;23.80
65556;PMS3003;52200;53.490;14.376;2023-02-28T09:05:53;48.40;40.60;23.20
65556;PMS3003;52200;53.490;14.376;2023-02-28T09:08:24;56.00;39.20;24.20
65556;PMS3003;52200;53.490;14.376;2023-02-28T09:10:51;58.40;44.00;24.80
65556;PMS3003;52200;53.490;14.376;2023-02-28T09:13:18;51.20;40.80;23.00
65556;PMS3003;52200;53.490;14.376;2023-02-28T09:15:44;54.00;41.80;24.40
65556;PMS3003;52200;53.490;14.376;2023-02-28T09:18:10;44.00;33.80;21.60
65556;PMS3003;52200;53.490;14.376;2023-02-28T09:20:39;41.40;31.80;16.40
65556;PMS3003;52200;53.490;14.376;2023-02-28T09:23:05;33.00;28.20;15.00
65556;PMS3003;52200;53.490;14.376;2023-02-28T09:25:31;51.40;42.80;23.80
65556;PMS3003;52200;53.490;14.376;2023-02-28T09:27:57;57.75;43.75;25.75
65556;PMS3003;52200;53.490;14.376;2023-02-28T09:30:22;43.25;33.50;18.00
65556;PMS3003;52200;53.490;14.376;2023-02-28T09:32:47;85.67;62.67;38.00
65556;PMS3003;52200;53.490;14.376;2023-02-28T09:35:17;46.40;30.00;18.40
65556;PMS3003;52200;53.490;14.376;2023-02-28T09:37:43;34.40;26.00;16.00
65556;PMS3003;52200;53.490;14.376;2023-02-28T09:40:09;43.00;33.40;16.20
65556;PMS3003;52200;53.490;14.376;2023-02-28T09:42:37;39.60;27.60;16.00
65556;PMS3003;52200;53.490;14.376;2023-02-28T09:45:06;31.00;23.40;14.00
65556;PMS3003;52200;53.490;14.376;2023-02-28T09:47:45;36.00;26.80;15.40
65556;PMS3003;52200;53.490;14.376;2023-02-28T09:50:18;32.20;23.60;13.00
65556;PMS3003;52200;53.490;14.376;2023-02-28T09:52:51;30.40;23.40;12.00
65556;PMS3003;52200;53.490;14.376;2023-02-28T09:55:28;29.00;21.00;12.60
65556;PMS3003;52200;53.490;14.376;2023-02-28T09:57:58;26.80;20.00;10.60
65556;PMS3003;52200;53.490;14.376;2023-02-28T10:00:33;25.00;16.80;6.00
65556;PMS3003;52200;53.490;14.376;2023-02-28T10:08:16;21.20;16.60;9.60
65556;PMS3003;52200;53.490;14.376;2023-02-28T10:11:00;20.80;16.20;7.80
65556;PMS3003;52200;53.490;14.376;2023-02-28T10:16:24;18.20;12.40;5.60
65556;PMS3003;52200;53.490;14.376;2023-02-28T10:19:14;19.80;11.20;5.40
65556;PMS3003;52200;53.490;14.376;2023-02-28T10:24:19;24.00;16.00;9.40
65556;PMS3003;52200;53.490;14.376;2023-02-28T10:26:48;29.00;20.00;11.60
65556;PMS3003;52200;53.490;14.376;2023-02-28T10:29:13;29.25;22.50;13.00
65556;PMS3003;52200;53.490;14.376;2023-02-28T10:31:40;27.80;20.80;12.20
65556;PMS3003;52200;53.490;14.376;2023-02-28T10:34:06;29.20;18.80;10.20
65556;PMS3003;52200;53.490;14.376;2023-02-28T10:36:32;25.60;17.40;10.60
65556;PMS3003;52200;53.490;14.376;2023-02-28T10:38:58;26.50;17.50;10.00
65556;PMS3003;52200;53.490;14.376;2023-02-28T10:41:32;23.00;14.00;6.60
65556;PMS3003;52200;53.490;14.376;2023-02-28T10:44:14;18.20;13.00;6.20
65556;PMS3003;52200;53.490;14.376;2023-02-28T10:46:45;21.80;14.20;7.20
65556;PMS3003;52200;53.490;14.376;2023-02-28T10:49:28;18.00;11.00;5.00
65556;PMS3003;52200;53.490;14.376;2023-02-28T10:51:55;15.80;9.40;5.00
65556;PMS3003;52200;53.490;14.376;2023-02-28T10:54:35;14.60;10.40;5.00
65556;PMS3003;52200;53.490;14.376;2023-02-28T10:57:07;17.00;9.40;3.40
65556;PMS3003;52200;53.490;14.376;2023-02-28T10:59:43;15.80;9.60;5.00
65556;PMS3003;52200;53.490;14.376;2023-02-28T11:05:30;21.20;13.20;7.00
65556;PMS3003;52200;53.490;14.376;2023-02-28T11:10:39;21.60;14.20;6.00
65556;PMS3003;52200;53.490;14.376;2023-02-28T11:13:17;21.60;14.20;6.00
65556;PMS3003;52200;53.490;14.376;2023-02-28T11:15:55;19.20;13.80;9.00
65556;PMS3003;52200;53.490;14.376;2023-02-28T11:18:30;20.00;13.80;6.00
65556;PMS3003;52200;53.490;14.376;2023-02-28T11:21:16;15.20;9.80;5.00
65556;PMS3003;52200;53.490;14.376;2023-02-28T11:23:46;17.00;10.40;5.60
65556;PMS3003;52200;53.490;14.376;2023-02-28T11:26:14;21.80;13.40;5.80
65556;PMS3003;52200;53.490;14.376;2023-02-28T11:28:41;15.80;9.40;4.60
65556;PMS3003;52200;53.490;14.376;2023-02-28T11:33:59;10.80;6.00;1.80
65556;PMS3003;52200;53.490;14.376;2023-02-28T11:36:26;12.80;7.40;3.00
65556;PMS3003;52200;53.490;14.376;2023-02-28T11:38:56;9.60;3.40;2.00
65556;PMS3003;52200;53.490;14.376;2023-02-28T11:44:00;13.40;8.80;2.40
65556;PMS3003;52200;53.490;14.376;2023-02-28T11:46:47;10.00;5.00;3.00
65556;PMS3003;52200;53.490;14.376;2023-02-28T11:49:26;11.80;6.00;2.20
65556;PMS3003;52200;53.490;14.376;2023-02-28T11:57:43;12.20;5.80;3.00
65556;PMS3003;52200;53.490;14.376;2023-02-28T12:00:29;19.20;10.80;5.40
65556;PMS3003;52200;53.490;14.376;2023-02-28T12:05:46;13.80;6.40;2.20
65556;PMS3003;52200;53.490;14.376;2023-02-28T12:14:09;9.60;5.60;1.00
65556;PMS3003;52200;53.490;14.376;2023-02-28T12:16:47;18.60;10.60;5.80
65556;PMS3003;52200;53.490;14.376;2023-02-28T12:19:26;20.00;10.80;6.00
65556;PMS3003;52200;53.490;14.376;2023-02-28T12:26:54;19.50;12.50;5.00
65556;PMS3003;52200;53.490;14.376;2023-02-28T12:29:26;10.00;4.60;2.00
65556;PMS3003;52200;53.490;14.376;2023-02-28T12:34:49;9.00;4.00;1.60
65556;PMS3003;52200;53.490;14.376;2023-02-28T12:37:31;21.40;12.60;5.00
65556;PMS3003;52200;53.490;14.376;2023-02-28T12:40:00;13.00;5.80;2.40
65556;PMS3003;52200;53.490;14.376;2023-02-28T12:42:31;10.80;6.00;2.00
65556;PMS3003;52200;53.490;14.376;2023-02-28T12:45:04;10.40;5.40;2.00
65556;PMS3003;52200;53.490;14.376;2023-02-28T12:47:38;9.60;5.00;2.00
65556;PMS3003;52200;53.490;14.376;2023-02-28T12:50:08;11.00;6.40;2.00
65556;PMS3003;52200;53.490;14.376;2023-02-28T12:55:15;13.00;8.40;3.00
65556;PMS3003;52200;53.490;14.376;2023-02-28T12:57:53;12.60;3.80;1.60
65556;PMS3003;52200;53.490;14.376;2023-02-28T13:00:32;11.00;6.00;2.00
65556;PMS3003;52200;53.490;14.376;2023-02-28T13:05:56;18.60;11.80;4.20
65556;PMS3003;52200;53.490;14.376;2023-02-28T13:08:44;12.20;6.00;2.00
65556;PMS3003;52200;53.490;14.376;2023-02-28T13:14:14;16.00;8.80;2.80
65556;PMS3003;52200;53.490;14.376;2023-02-28T13:19:35;13.80;7.00;3.00
65556;PMS3003;52200;53.490;14.376;2023-02-28T13:22:04;13.20;7.00;3.60
65556;PMS3003;52200;53.490;14.376;2023-02-28T13:34:31;17.20;11.40;6.60
65556;PMS3003;52200;53.490;14.376;2023-02-28T13:42:50;22.50;15.25;7.00
65556;PMS3003;52200;53.490;14.376;2023-02-28T13:47:42;11.00;5.60;1.20
65556;PMS3003;52200;53.490;14.376;2023-02-28T14:07:00;8.60;3.60;1.40
65556;PMS3003;52200;53.490;14.376;2023-02-28T14:09:28;10.00;3.60;1.00
65556;PMS3003;52200;53.490;14.376;2023-02-28T14:12:10;7.80;3.20;2.00
65556;PMS3003;52200;53.490;14.376;2023-02-28T14:15:03;10.00;4.60;1.00
65556;PMS3003;52200;53.490;14.376;2023-02-28T14:17:30;6.80;2.40;1.00
65556;PMS3003;52200;53.490;14.376;2023-02-28T14:19:57;7.80;3.00;1.80
65556;PMS3003;52200;53.490;14.376;2023-02-28T14:28:06;9.40;3.00;1.20
65556;PMS3003;52200;53.490;14.376;2023-02-28T14:38:51;10.00;5.00;1.00
65556;PMS3003;52200;53.490;14.376;2023-02-28T14:41:20;5.20;1.00;0.40
65556;PMS3003;52200;53.490;14.376;2023-02-28T14:43:56;5.00;1.00;0.00
65556;PMS3003;52200;53.490;14.376;2023-02-28T14:46:25;6.80;2.00;0.80
65556;PMS3003;52200;53.490;14.376;2023-02-28T14:49:03;9.20;2.00;1.00
65556;PMS3003;52200;53.490;14.376;2023-02-28T14:51:31;9.40;3.20;1.00
65556;PMS3003;52200;53.490;14.376;2023-02-28T14:53:58;6.00;1.40;0.40
65556;PMS3003;52200;53.490;14.376;2023-02-28T14:56:48;8.80;3.00;0.40
65556;PMS3003;52200;53.490;14.376;2023-02-28T14:59:30;9.40;2.00;1.00
65556;PMS3003;52200;53.490;14.376;2023-02-28T15:04:59;9.60;5.00;1.00
65556;PMS3003;52200;53.490;14.376;2023-02-28T15:07:35;11.00;6.20;2.00
65556;PMS3003;52200;53.490;14.376;2023-02-28T15:12:32;7.80;2.60;1.00
65556;PMS3003;52200;53.490;14.376;2023-02-28T15:14:57;9.75;2.00;0.00
65556;PMS3003;52200;53.490;14.376;2023-02-28T15:17:23;6.25;2.00;0.25
65556;PMS3003;52200;53.490;14.376;2023-02-28T15:19:50;6.40;1.60;0.00
65556;PMS3003;52200;53.490;14.376;2023-02-28T15:22:26;6.00;1.00;0.00
65556;PMS3003;52200;53.490;14.376;2023-02-28T15:25:00;5.20;1.00;0.00
65556;PMS3003;52200;53.490;14.376;2023-02-28T15:27:31;5.20;0.80;0.00
65556;PMS3003;52200;53.490;14.376;2023-02-28T15:30:04;5.80;1.60;0.00
65556;PMS3003;52200;53.490;14.376;2023-02-28T15:32:33;4.20;0.00;0.00
65556;PMS3003;52200;53.490;14.376;2023-02-28T15:35:17;6.40;1.00;0.00
65556;PMS3003;52200;53.490;14.376;2023-02-28T15:40:52;10.40;3.20;0.00
65556;PMS3003;52200;53.490;14.376;2023-02-28T15:45:49;10.20;2.40;0.00
65556;PMS3003;52200;53.490;14.376;2023-02-28T15:48:48;7.00;1.20;0.00
65556;PMS3003;52200;53.490;14.376;2023-02-28T15:53:54;6.00;2.00;0.80
65556;PMS3003;52200;53.490;14.376;2023-02-28T15:56:32;7.80;2.80;1.00
65556;PMS3003;52200;53.490;14.376;2023-02-28T15:59:07;9.00;4.20;1.00
65556;PMS3003;52200;53.490;14.376;2023-02-28T16:01:40;8.00;4.00;1.00
65556;PMS3003;52200;53.490;14.376;2023-02-28T16:04:11;5.75;1.75;0.00
65556;PMS3003;52200;53.490;14.376;2023-02-28T16:06:40;6.40;2.00;0.00
65556;PMS3003;52200;53.490;14.376;2023-02-28T16:09:16;6.40;1.80;0.00
65556;PMS3003;52200;53.490;14.376;2023-02-28T16:11:43;5.80;1.60;0.00
65556;PMS3003;52200;53.490;14.376;2023-02-28T16:14:12;5.80;1.00;0.00
65556;PMS3003;52200;53.490;14.376;2023-02-28T16:16:42;7.80;1.40;0.00
65556;PMS3003;52200;53.490;14.376;2023-02-28T16:19:11;6.00;1.00;0.00
65556;PMS3003;52200;53.490;14.376;2023-02-28T16:21:37;5.75;1.25;0.00